sensor_id;sensor_type;location;lat;lon;timestamp;P1;durP1;ratioP1;P2;durP2;ratioP2
42084;SDS011;27746;52.228;20.890;2023-09-18T00:01:05;8.73;;;5.80;;
42084;SDS011;27746;52.228;20.890;2023-09-18T00:03:35;9.70;;;6.38;;
42084;SDS011;27746;52.228;20.890;2023-09-18T00:06:02;8.35;;;6.07;;
42084;SDS011;27746;52.228;20.890;2023-09-18T00:08:29;8.07;;;6.03;;
42084;SDS011;27746;52.228;20.890;2023-09-18T00:10:55;9.05;;;5.35;;
42084;SDS011;27746;52.228;20.890;2023-09-18T00:13:24;10.68;;;6.47;;
42084;SDS011;27746;52.228;20.890;2023-09-18T00:15:53;9.32;;;6.00;;
42084;SDS011;27746;52.228;20.890;2023-09-18T00:18:21;7.82;;;5.88;;
42084;SDS011;27746;52.228;20.890;2023-09-18T00:20:48;6.65;;;5.10;;
42084;SDS011;27746;52.228;20.890;2023-09-18T00:23:17;9.25;;;6.72;;
42084;SDS011;27746;52.228;20.890;2023-09-18T00:25:44;9.65;;;6.45;;
42084;SDS011;27746;52.228;20.890;2023-09-18T00:28:10;8.57;;;6.28;;
42084;SDS011;27746;52.228;20.890;2023-09-18T00:30:41;8.50;;;6.05;;
42084;SDS011;27746;52.228;20.890;2023-09-18T00:33:12;9.20;;;6.75;;
42084;SDS011;27746;52.228;20.890;2023-09-18T00:35:39;8.55;;;6.00;;
42084;SDS011;27746;52.228;20.890;2023-09-18T00:38:06;9.18;;;6.25;;
42084;SDS011;27746;52.228;20.890;2023-09-18T00:40:34;11.45;;;7.38;;
42084;SDS011;27746;52.228;20.890;2023-09-18T00:43:01;11.02;;;6.40;;
42084;SDS011;27746;52.228;20.890;2023-09-18T00:45:28;8.25;;;6.10;;
42084;SDS011;27746;52.228;20.890;2023-09-18T00:47:56;7.85;;;6.13;;
42084;SDS011;27746;52.228;20.890;2023-09-18T00:50:23;9.10;;;7.35;;
42084;SDS011;27746;52.228;20.890;2023-09-18T00:52:51;9.48;;;6.40;;
42084;SDS011;27746;52.228;20.890;2023-09-18T00:55:18;12.23;;;7.13;;
42084;SDS011;27746;52.228;20.890;2023-09-18T00:57:45;10.98;;;8.02;;
42084;SDS011;27746;52.228;20.890;2023-09-18T01:00:12;9.38;;;6.82;;
42084;SDS011;27746;52.228;20.890;2023-09-18T01:02:42;9.35;;;7.57;;
42084;SDS011;27746;52.228;20.890;2023-09-18T01:05:12;9.02;;;6.38;;
42084;SDS011;27746;52.228;20.890;2023-09-18T01:07:41;11.75;;;7.57;;
42084;SDS011;27746;52.228;20.890;2023-09-18T01:10:09;9.57;;;7.90;;
42084;SDS011;27746;52.228;20.890;2023-09-18T01:12:42;9.52;;;7.13;;
42084;SDS011;27746;52.228;20.890;2023-09-18T01:15:14;10.30;;;7.23;;
42084;SDS011;27746;52.228;20.890;2023-09-18T01:17:48;10.30;;;7.28;;
42084;SDS011;27746;52.228;20.890;2023-09-18T01:20:17;9.88;;;7.15;;
42084;SDS011;27746;52.228;20.890;2023-09-18T01:22:45;8.68;;;6.80;;
42084;SDS011;27746;52.228;20.890;2023-09-18T01:25:14;9.90;;;7.25;;
42084;SDS011;27746;52.228;20.890;2023-09-18T01:27:41;10.50;;;8.05;;
42084;SDS011;27746;52.228;20.890;2023-09-18T01:30:08;9.23;;;7.15;;
42084;SDS011;27746;52.228;20.890;2023-09-18T01:32:37;9.05;;;7.13;;
42084;SDS011;27746;52.228;20.890;2023-09-18T01:35:06;11.35;;;7.45;;
42084;SDS011;27746;52.228;20.890;2023-09-18T01:37:33;9.75;;;7.68;;
42084;SDS011;27746;52.228;20.890;2023-09-18T01:40:04;11.88;;;7.53;;
42084;SDS011;27746;52.228;20.890;2023-09-18T01:42:32;10.50;;;7.07;;
42084;SDS011;27746;52.228;20.890;2023-09-18T01:45:00;10.27;;;7.63;;
42084;SDS011;27746;52.228;20.890;2023-09-18T01:47:26;11.30;;;7.35;;
42084;SDS011;27746;52.228;20.890;2023-09-18T01:49:53;11.13;;;7.90;;
42084;SDS011;27746;52.228;20.890;2023-09-18T01:52:20;10.63;;;7.47;;
42084;SDS011;27746;52.228;20.890;2023-09-18T01:54:47;10.15;;;7.53;;
42084;SDS011;27746;52.228;20.890;2023-09-18T01:57:16;11.48;;;7.50;;
42084;SDS011;27746;52.228;20.890;2023-09-18T01:59:43;10.77;;;8.05;;
42084;SDS011;27746;52.228;20.890;2023-09-18T02:02:10;12.82;;;8.52;;
42084;SDS011;27746;52.228;20.890;2023-09-18T02:04:37;10.30;;;7.38;;
42084;SDS011;27746;52.228;20.890;2023-09-18T02:07:05;11.80;;;8.63;;
42084;SDS011;27746;52.228;20.890;2023-09-18T02:09:32;13.00;;;7.70;;
42084;SDS011;27746;52.228;20.890;2023-09-18T02:11:59;11.23;;;7.60;;
42084;SDS011;27746;52.228;20.890;2023-09-18T02:14:27;11.40;;;7.75;;
42084;SDS011;27746;52.228;20.890;2023-09-18T02:16:55;13.85;;;8.88;;
42084;SDS011;27746;52.228;20.890;2023-09-18T02:19:22;12.13;;;7.57;;
42084;SDS011;27746;52.228;20.890;2023-09-18T02:21:49;9.85;;;7.22;;
42084;SDS011;27746;52.228;20.890;2023-09-18T02:24:16;9.60;;;7.65;;
42084;SDS011;27746;52.228;20.890;2023-09-18T02:26:43;9.77;;;7.70;;
42084;SDS011;27746;52.228;20.890;2023-09-18T02:29:10;10.07;;;7.75;;
42084;SDS011;27746;52.228;20.890;2023-09-18T02:31:40;11.25;;;7.65;;
42084;SDS011;27746;52.228;20.890;2023-09-18T02:34:07;13.43;;;7.97;;
42084;SDS011;27746;52.228;20.890;2023-09-18T02:36:34;10.30;;;7.35;;
42084;SDS011;27746;52.228;20.890;2023-09-18T02:39:01;11.07;;;7.32;;
42084;SDS011;27746;52.228;20.890;2023-09-18T02:41:28;10.68;;;6.93;;
42084;SDS011;27746;52.228;20.890;2023-09-18T02:43:56;11.27;;;7.82;;
42084;SDS011;27746;52.228;20.890;2023-09-18T02:46:23;12.02;;;7.43;;
42084;SDS011;27746;52.228;20.890;2023-09-18T02:48:51;11.48;;;7.80;;
42084;SDS011;27746;52.228;20.890;2023-09-18T02:51:18;11.55;;;7.70;;
42084;SDS011;27746;52.228;20.890;2023-09-18T02:53:45;11.25;;;7.28;;
42084;SDS011;27746;52.228;20.890;2023-09-18T02:56:12;9.93;;;7.70;;
42084;SDS011;27746;52.228;20.890;2023-09-18T02:58:39;10.98;;;7.60;;
42084;SDS011;27746;52.228;20.890;2023-09-18T03:01:06;11.57;;;7.47;;
42084;SDS011;27746;52.228;20.890;2023-09-18T03:03:34;10.75;;;7.53;;
42084;SDS011;27746;52.228;20.890;2023-09-18T03:06:03;11.75;;;8.13;;
42084;SDS011;27746;52.228;20.890;2023-09-18T03:08:31;11.70;;;8.38;;
42084;SDS011;27746;52.228;20.890;2023-09-18T03:10:58;10.95;;;8.07;;
42084;SDS011;27746;52.228;20.890;2023-09-18T03:13:26;11.10;;;8.35;;
42084;SDS011;27746;52.228;20.890;2023-09-18T03:15:53;14.07;;;8.30;;
42084;SDS011;27746;52.228;20.890;2023-09-18T03:18:22;11.13;;;7.85;;
42084;SDS011;27746;52.228;20.890;2023-09-18T03:20:48;11.75;;;8.45;;
42084;SDS011;27746;52.228;20.890;2023-09-18T03:23:17;11.38;;;7.97;;
42084;SDS011;27746;52.228;20.890;2023-09-18T03:25:43;11.43;;;8.40;;
42084;SDS011;27746;52.228;20.890;2023-09-18T03:28:10;12.02;;;8.80;;
42084;SDS011;27746;52.228;20.890;2023-09-18T03:30:37;11.73;;;8.63;;
42084;SDS011;27746;52.228;20.890;2023-09-18T03:33:04;12.88;;;8.18;;
42084;SDS011;27746;52.228;20.890;2023-09-18T03:35:31;11.18;;;8.93;;
42084;SDS011;27746;52.228;20.890;2023-09-18T03:37:58;10.43;;;7.85;;
42084;SDS011;27746;52.228;20.890;2023-09-18T03:40:27;12.07;;;8.98;;
42084;SDS011;27746;52.228;20.890;2023-09-18T03:42:54;15.10;;;9.38;;
42084;SDS011;27746;52.228;20.890;2023-09-18T03:45:21;15.07;;;8.90;;
42084;SDS011;27746;52.228;20.890;2023-09-18T03:47:48;12.18;;;8.32;;
42084;SDS011;27746;52.228;20.890;2023-09-18T03:50:18;13.48;;;9.57;;
42084;SDS011;27746;52.228;20.890;2023-09-18T03:52:45;15.45;;;9.20;;
42084;SDS011;27746;52.228;20.890;2023-09-18T03:55:12;13.70;;;8.82;;
42084;SDS011;27746;52.228;20.890;2023-09-18T03:57:41;13.68;;;9.27;;
42084;SDS011;27746;52.228;20.890;2023-09-18T04:00:08;13.70;;;9.00;;
42084;SDS011;27746;52.228;20.890;2023-09-18T04:02:36;12.18;;;9.07;;
42084;SDS011;27746;52.228;20.890;2023-09-18T04:05:03;13.52;;;9.32;;
42084;SDS011;27746;52.228;20.890;2023-09-18T04:07:31;12.50;;;9.57;;
42084;SDS011;27746;52.228;20.890;2023-09-18T04:09:58;13.48;;;9.70;;
42084;SDS011;27746;52.228;20.890;2023-09-18T04:12:25;13.80;;;9.80;;
42084;SDS011;27746;52.228;20.890;2023-09-18T04:14:54;14.77;;;9.57;;
42084;SDS011;27746;52.228;20.890;2023-09-18T04:17:20;11.65;;;9.07;;
42084;SDS011;27746;52.228;20.890;2023-09-18T04:19:47;14.90;;;9.88;;
42084;SDS011;27746;52.228;20.890;2023-09-18T04:22:14;14.13;;;9.43;;
42084;SDS011;27746;52.228;20.890;2023-09-18T04:24:41;12.05;;;9.23;;
42084;SDS011;27746;52.228;20.890;2023-09-18T04:27:08;14.32;;;9.77;;
42084;SDS011;27746;52.228;20.890;2023-09-18T04:29:35;13.07;;;10.02;;
42084;SDS011;27746;52.228;20.890;2023-09-18T04:32:04;15.27;;;10.23;;
42084;SDS011;27746;52.228;20.890;2023-09-18T04:34:31;12.38;;;8.95;;
42084;SDS011;27746;52.228;20.890;2023-09-18T04:37:00;17.15;;;9.82;;
42084;SDS011;27746;52.228;20.890;2023-09-18T04:39:28;14.95;;;10.23;;
42084;SDS011;27746;52.228;20.890;2023-09-18T04:41:56;13.20;;;10.00;;
42084;SDS011;27746;52.228;20.890;2023-09-18T04:44:23;14.85;;;10.00;;
42084;SDS011;27746;52.228;20.890;2023-09-18T04:46:50;13.48;;;9.95;;
42084;SDS011;27746;52.228;20.890;2023-09-18T04:49:18;14.10;;;10.02;;
42084;SDS011;27746;52.228;20.890;2023-09-18T04:51:45;13.57;;;9.38;;
42084;SDS011;27746;52.228;20.890;2023-09-18T04:54:13;15.07;;;9.88;;
42084;SDS011;27746;52.228;20.890;2023-09-18T04:56:40;14.25;;;10.50;;
42084;SDS011;27746;52.228;20.890;2023-09-18T04:59:07;12.40;;;10.02;;
42084;SDS011;27746;52.228;20.890;2023-09-18T05:01:34;16.90;;;10.30;;
42084;SDS011;27746;52.228;20.890;2023-09-18T05:04:03;13.50;;;9.80;;
42084;SDS011;27746;52.228;20.890;2023-09-18T05:06:32;12.65;;;10.23;;
42084;SDS011;27746;52.228;20.890;2023-09-18T05:08:59;12.93;;;9.25;;
42084;SDS011;27746;52.228;20.890;2023-09-18T05:11:26;13.18;;;10.55;;
42084;SDS011;27746;52.228;20.890;2023-09-18T05:13:52;16.38;;;10.15;;
42084;SDS011;27746;52.228;20.890;2023-09-18T05:16:19;13.52;;;10.35;;
42084;SDS011;27746;52.228;20.890;2023-09-18T05:18:46;13.68;;;10.40;;
42084;SDS011;27746;52.228;20.890;2023-09-18T05:21:13;14.10;;;10.15;;
42084;SDS011;27746;52.228;20.890;2023-09-18T05:23:41;13.52;;;9.98;;
42084;SDS011;27746;52.228;20.890;2023-09-18T05:26:08;14.15;;;10.35;;
42084;SDS011;27746;52.228;20.890;2023-09-18T05:28:36;18.52;;;11.43;;
42084;SDS011;27746;52.228;20.890;2023-09-18T05:31:03;15.45;;;11.15;;
42084;SDS011;27746;52.228;20.890;2023-09-18T05:33:30;17.00;;;11.13;;
42084;SDS011;27746;52.228;20.890;2023-09-18T05:35:57;13.38;;;10.38;;
42084;SDS011;27746;52.228;20.890;2023-09-18T05:38:23;13.80;;;10.15;;
42084;SDS011;27746;52.228;20.890;2023-09-18T05:40:52;15.30;;;11.15;;
42084;SDS011;27746;52.228;20.890;2023-09-18T05:43:18;22.83;;;10.88;;
42084;SDS011;27746;52.228;20.890;2023-09-18T05:45:45;15.88;;;10.65;;
42084;SDS011;27746;52.228;20.890;2023-09-18T05:48:14;16.80;;;11.40;;
42084;SDS011;27746;52.228;20.890;2023-09-18T05:50:41;16.35;;;11.50;;
42084;SDS011;27746;52.228;20.890;2023-09-18T05:53:08;19.05;;;11.00;;
42084;SDS011;27746;52.228;20.890;2023-09-18T05:55:35;15.32;;;11.02;;
42084;SDS011;27746;52.228;20.890;2023-09-18T05:58:03;17.83;;;11.57;;
42084;SDS011;27746;52.228;20.890;2023-09-18T06:00:32;17.67;;;10.80;;
42084;SDS011;27746;52.228;20.890;2023-09-18T06:02:59;19.17;;;11.48;;
42084;SDS011;27746;52.228;20.890;2023-09-18T06:05:26;14.77;;;11.63;;
42084;SDS011;27746;52.228;20.890;2023-09-18T06:07:57;18.05;;;11.15;;
42084;SDS011;27746;52.228;20.890;2023-09-18T06:10:24;15.68;;;11.15;;
42084;SDS011;27746;52.228;20.890;2023-09-18T06:12:51;17.17;;;11.48;;
42084;SDS011;27746;52.228;20.890;2023-09-18T06:15:21;18.25;;;10.93;;
42084;SDS011;27746;52.228;20.890;2023-09-18T06:17:48;18.60;;;11.50;;
42084;SDS011;27746;52.228;20.890;2023-09-18T06:20:15;13.90;;;9.85;;
42084;SDS011;27746;52.228;20.890;2023-09-18T06:22:42;19.02;;;11.50;;
42084;SDS011;27746;52.228;20.890;2023-09-18T06:25:09;16.52;;;10.93;;
42084;SDS011;27746;52.228;20.890;2023-09-18T06:27:36;21.58;;;10.68;;
42084;SDS011;27746;52.228;20.890;2023-09-18T06:30:04;13.75;;;10.45;;
42084;SDS011;27746;52.228;20.890;2023-09-18T06:32:33;20.83;;;11.10;;
42084;SDS011;27746;52.228;20.890;2023-09-18T06:35:02;16.17;;;9.95;;
42084;SDS011;27746;52.228;20.890;2023-09-18T06:37:29;16.58;;;10.60;;
42084;SDS011;27746;52.228;20.890;2023-09-18T06:39:56;14.25;;;10.68;;
42084;SDS011;27746;52.228;20.890;2023-09-18T06:42:23;16.40;;;10.65;;
42084;SDS011;27746;52.228;20.890;2023-09-18T06:44:49;17.40;;;10.57;;
42084;SDS011;27746;52.228;20.890;2023-09-18T06:47:18;16.08;;;10.98;;
42084;SDS011;27746;52.228;20.890;2023-09-18T06:49:46;19.63;;;11.00;;
42084;SDS011;27746;52.228;20.890;2023-09-18T06:52:13;17.20;;;10.93;;
42084;SDS011;27746;52.228;20.890;2023-09-18T06:54:40;16.20;;;10.90;;
42084;SDS011;27746;52.228;20.890;2023-09-18T06:57:09;13.05;;;9.60;;
42084;SDS011;27746;52.228;20.890;2023-09-18T06:59:35;14.52;;;10.80;;
42084;SDS011;27746;52.228;20.890;2023-09-18T07:02:02;15.88;;;9.77;;
42084;SDS011;27746;52.228;20.890;2023-09-18T07:04:29;20.60;;;10.68;;
42084;SDS011;27746;52.228;20.890;2023-09-18T07:06:58;14.38;;;9.48;;
42084;SDS011;27746;52.228;20.890;2023-09-18T07:09:24;12.43;;;9.98;;
42084;SDS011;27746;52.228;20.890;2023-09-18T07:11:51;17.42;;;11.00;;
42084;SDS011;27746;52.228;20.890;2023-09-18T07:14:18;19.02;;;10.55;;
42084;SDS011;27746;52.228;20.890;2023-09-18T07:16:45;19.50;;;10.40;;
42084;SDS011;27746;52.228;20.890;2023-09-18T07:19:12;16.30;;;10.13;;
42084;SDS011;27746;52.228;20.890;2023-09-18T07:21:42;18.50;;;9.60;;
42084;SDS011;27746;52.228;20.890;2023-09-18T07:24:11;17.77;;;10.27;;
42084;SDS011;27746;52.228;20.890;2023-09-18T07:26:43;22.40;;;10.20;;
42084;SDS011;27746;52.228;20.890;2023-09-18T07:29:11;17.48;;;9.65;;
42084;SDS011;27746;52.228;20.890;2023-09-18T07:31:38;13.05;;;9.20;;
42084;SDS011;27746;52.228;20.890;2023-09-18T07:34:06;14.05;;;8.60;;
42084;SDS011;27746;52.228;20.890;2023-09-18T07:36:33;16.75;;;10.10;;
42084;SDS011;27746;52.228;20.890;2023-09-18T07:38:59;22.77;;;11.23;;
42084;SDS011;27746;52.228;20.890;2023-09-18T07:41:28;19.15;;;9.82;;
42084;SDS011;27746;52.228;20.890;2023-09-18T07:43:56;12.70;;;8.90;;
42084;SDS011;27746;52.228;20.890;2023-09-18T07:46:24;18.38;;;9.13;;
42084;SDS011;27746;52.228;20.890;2023-09-18T07:48:51;16.63;;;10.00;;
42084;SDS011;27746;52.228;20.890;2023-09-18T07:51:18;16.33;;;8.65;;
42084;SDS011;27746;52.228;20.890;2023-09-18T07:53:44;16.63;;;8.65;;
42084;SDS011;27746;52.228;20.890;2023-09-18T07:56:11;14.63;;;8.80;;
42084;SDS011;27746;52.228;20.890;2023-09-18T07:58:40;15.60;;;8.55;;
42084;SDS011;27746;52.228;20.890;2023-09-18T08:01:07;15.38;;;8.02;;
42084;SDS011;27746;52.228;20.890;2023-09-18T08:03:35;12.40;;;9.10;;
42084;SDS011;27746;52.228;20.890;2023-09-18T08:06:02;14.77;;;8.48;;
42084;SDS011;27746;52.228;20.890;2023-09-18T08:08:30;16.85;;;9.70;;
42084;SDS011;27746;52.228;20.890;2023-09-18T08:11:00;12.25;;;9.27;;
42084;SDS011;27746;52.228;20.890;2023-09-18T08:13:33;13.18;;;8.63;;
42084;SDS011;27746;52.228;20.890;2023-09-18T08:16:01;9.57;;;7.78;;
42084;SDS011;27746;52.228;20.890;2023-09-18T08:18:29;13.80;;;8.77;;
42084;SDS011;27746;52.228;20.890;2023-09-18T08:20:56;11.98;;;7.90;;
42084;SDS011;27746;52.228;20.890;2023-09-18T08:23:23;11.80;;;8.55;;
42084;SDS011;27746;52.228;20.890;2023-09-18T08:25:50;12.05;;;8.32;;
42084;SDS011;27746;52.228;20.890;2023-09-18T08:28:20;10.55;;;7.68;;
42084;SDS011;27746;52.228;20.890;2023-09-18T08:30:47;12.85;;;8.02;;
42084;SDS011;27746;52.228;20.890;2023-09-18T08:33:16;10.80;;;8.45;;
42084;SDS011;27746;52.228;20.890;2023-09-18T08:35:43;10.88;;;7.85;;
42084;SDS011;27746;52.228;20.890;2023-09-18T08:38:11;9.77;;;7.45;;
42084;SDS011;27746;52.228;20.890;2023-09-18T08:40:39;8.85;;;7.13;;
42084;SDS011;27746;52.228;20.890;2023-09-18T08:43:07;16.92;;;9.45;;
42084;SDS011;27746;52.228;20.890;2023-09-18T08:45:35;17.88;;;7.70;;
42084;SDS011;27746;52.228;20.890;2023-09-18T08:48:06;13.85;;;7.32;;
42084;SDS011;27746;52.228;20.890;2023-09-18T08:50:35;8.98;;;7.43;;
42084;SDS011;27746;52.228;20.890;2023-09-18T08:53:03;11.35;;;7.75;;
42084;SDS011;27746;52.228;20.890;2023-09-18T08:55:29;11.80;;;7.28;;
42084;SDS011;27746;52.228;20.890;2023-09-18T08:57:59;12.13;;;7.25;;
42084;SDS011;27746;52.228;20.890;2023-09-18T09:00:26;16.42;;;7.32;;
42084;SDS011;27746;52.228;20.890;2023-09-18T09:02:53;16.35;;;6.95;;
42084;SDS011;27746;52.228;20.890;2023-09-18T09:05:20;10.40;;;6.50;;
42084;SDS011;27746;52.228;20.890;2023-09-18T09:07:49;17.73;;;8.35;;
42084;SDS011;27746;52.228;20.890;2023-09-18T09:10:17;21.25;;;8.25;;
42084;SDS011;27746;52.228;20.890;2023-09-18T09:12:47;13.65;;;7.60;;
42084;SDS011;27746;52.228;20.890;2023-09-18T09:15:19;12.80;;;7.10;;
42084;SDS011;27746;52.228;20.890;2023-09-18T09:17:46;11.90;;;6.55;;
42084;SDS011;27746;52.228;20.890;2023-09-18T09:20:14;14.68;;;7.45;;
42084;SDS011;27746;52.228;20.890;2023-09-18T09:22:43;11.35;;;7.53;;
42084;SDS011;27746;52.228;20.890;2023-09-18T09:25:25;11.30;;;6.47;;
42084;SDS011;27746;52.228;20.890;2023-09-18T09:27:53;11.77;;;6.65;;
42084;SDS011;27746;52.228;20.890;2023-09-18T09:30:21;11.95;;;6.25;;
42084;SDS011;27746;52.228;20.890;2023-09-18T09:32:49;14.40;;;6.68;;
42084;SDS011;27746;52.228;20.890;2023-09-18T09:35:19;6.53;;;4.82;;
42084;SDS011;27746;52.228;20.890;2023-09-18T09:37:52;8.35;;;4.97;;
42084;SDS011;27746;52.228;20.890;2023-09-18T09:40:20;8.98;;;4.45;;
42084;SDS011;27746;52.228;20.890;2023-09-18T09:42:52;8.77;;;5.45;;
42084;SDS011;27746;52.228;20.890;2023-09-18T09:45:25;7.60;;;5.13;;
42084;SDS011;27746;52.228;20.890;2023-09-18T09:47:54;7.72;;;4.72;;
42084;SDS011;27746;52.228;20.890;2023-09-18T09:50:21;8.20;;;5.05;;
42084;SDS011;27746;52.228;20.890;2023-09-18T09:52:50;5.85;;;4.78;;
42084;SDS011;27746;52.228;20.890;2023-09-18T09:55:18;9.52;;;5.80;;
42084;SDS011;27746;52.228;20.890;2023-09-18T09:57:47;10.55;;;5.03;;
42084;SDS011;27746;52.228;20.890;2023-09-18T10:00:15;10.57;;;5.45;;
42084;SDS011;27746;52.228;20.890;2023-09-18T10:02:52;8.23;;;4.63;;
42084;SDS011;27746;52.228;20.890;2023-09-18T10:05:22;9.50;;;4.50;;
42084;SDS011;27746;52.228;20.890;2023-09-18T10:07:51;6.57;;;4.72;;
42084;SDS011;27746;52.228;20.890;2023-09-18T10:10:20;7.97;;;5.30;;
42084;SDS011;27746;52.228;20.890;2023-09-18T10:12:47;6.95;;;4.43;;
42084;SDS011;27746;52.228;20.890;2023-09-18T10:15:16;6.03;;;4.78;;
42084;SDS011;27746;52.228;20.890;2023-09-18T10:17:45;8.90;;;5.38;;
42084;SDS011;27746;52.228;20.890;2023-09-18T10:20:15;8.40;;;4.55;;
42084;SDS011;27746;52.228;20.890;2023-09-18T10:22:46;7.93;;;4.50;;
42084;SDS011;27746;52.228;20.890;2023-09-18T10:25:18;9.95;;;4.70;;
42084;SDS011;27746;52.228;20.890;2023-09-18T10:27:48;10.15;;;4.80;;
42084;SDS011;27746;52.228;20.890;2023-09-18T10:30:19;9.68;;;4.45;;
42084;SDS011;27746;52.228;20.890;2023-09-18T10:32:48;11.88;;;4.70;;
42084;SDS011;27746;52.228;20.890;2023-09-18T10:35:15;8.27;;;4.28;;
42084;SDS011;27746;52.228;20.890;2023-09-18T10:37:45;6.90;;;4.30;;
42084;SDS011;27746;52.228;20.890;2023-09-18T10:40:12;13.55;;;4.85;;
42084;SDS011;27746;52.228;20.890;2023-09-18T10:42:40;8.82;;;4.25;;
42084;SDS011;27746;52.228;20.890;2023-09-18T10:45:08;10.80;;;4.85;;
42084;SDS011;27746;52.228;20.890;2023-09-18T10:47:38;7.93;;;4.53;;
42084;SDS011;27746;52.228;20.890;2023-09-18T10:50:06;7.28;;;3.72;;
42084;SDS011;27746;52.228;20.890;2023-09-18T10:52:35;7.28;;;4.43;;
42084;SDS011;27746;52.228;20.890;2023-09-18T10:55:10;5.32;;;3.67;;
42084;SDS011;27746;52.228;20.890;2023-09-18T10:57:38;8.60;;;3.90;;
42084;SDS011;27746;52.228;20.890;2023-09-18T11:00:16;8.13;;;4.15;;
42084;SDS011;27746;52.228;20.890;2023-09-18T11:02:48;6.38;;;3.63;;
42084;SDS011;27746;52.228;20.890;2023-09-18T11:05:26;6.75;;;4.10;;
42084;SDS011;27746;52.228;20.890;2023-09-18T11:10:37;6.85;;;3.83;;
42084;SDS011;27746;52.228;20.890;2023-09-18T11:13:27;5.28;;;3.83;;
42084;SDS011;27746;52.228;20.890;2023-09-18T11:15:58;9.15;;;3.92;;
42084;SDS011;27746;52.228;20.890;2023-09-18T11:18:33;6.13;;;3.58;;
42084;SDS011;27746;52.228;20.890;2023-09-18T11:21:06;8.70;;;3.67;;
42084;SDS011;27746;52.228;20.890;2023-09-18T11:23:34;8.38;;;4.22;;
42084;SDS011;27746;52.228;20.890;2023-09-18T11:26:07;10.67;;;3.73;;
42084;SDS011;27746;52.228;20.890;2023-09-18T11:28:34;9.07;;;4.20;;
42084;SDS011;27746;52.228;20.890;2023-09-18T11:31:02;7.07;;;3.80;;
42084;SDS011;27746;52.228;20.890;2023-09-18T11:33:30;5.20;;;3.63;;
42084;SDS011;27746;52.228;20.890;2023-09-18T11:36:02;5.78;;;4.85;;
42084;SDS011;27746;52.228;20.890;2023-09-18T11:38:30;7.72;;;4.18;;
42084;SDS011;27746;52.228;20.890;2023-09-18T11:40:58;9.50;;;3.97;;
42084;SDS011;27746;52.228;20.890;2023-09-18T11:43:26;8.50;;;3.70;;
42084;SDS011;27746;52.228;20.890;2023-09-18T11:45:56;9.02;;;4.53;;
42084;SDS011;27746;52.228;20.890;2023-09-18T11:48:24;8.05;;;4.55;;
42084;SDS011;27746;52.228;20.890;2023-09-18T11:50:56;6.45;;;4.43;;
42084;SDS011;27746;52.228;20.890;2023-09-18T11:53:26;7.28;;;4.40;;
42084;SDS011;27746;52.228;20.890;2023-09-18T11:55:53;7.85;;;4.70;;
42084;SDS011;27746;52.228;20.890;2023-09-18T11:58:20;10.00;;;4.80;;
42084;SDS011;27746;52.228;20.890;2023-09-18T12:00:48;7.32;;;4.60;;
42084;SDS011;27746;52.228;20.890;2023-09-18T12:03:16;6.80;;;5.05;;
42084;SDS011;27746;52.228;20.890;2023-09-18T12:05:50;11.82;;;4.95;;
42084;SDS011;27746;52.228;20.890;2023-09-18T12:08:17;7.25;;;4.72;;
42084;SDS011;27746;52.228;20.890;2023-09-18T12:10:49;8.88;;;4.80;;
42084;SDS011;27746;52.228;20.890;2023-09-18T12:13:16;5.53;;;4.63;;
42084;SDS011;27746;52.228;20.890;2023-09-18T12:15:43;7.00;;;4.82;;
42084;SDS011;27746;52.228;20.890;2023-09-18T12:18:10;7.05;;;5.38;;
42084;SDS011;27746;52.228;20.890;2023-09-18T12:20:44;9.32;;;5.75;;
42084;SDS011;27746;52.228;20.890;2023-09-18T12:23:11;10.70;;;6.47;;
42084;SDS011;27746;52.228;20.890;2023-09-18T12:25:38;8.48;;;5.63;;
42084;SDS011;27746;52.228;20.890;2023-09-18T12:28:07;7.05;;;5.88;;
42084;SDS011;27746;52.228;20.890;2023-09-18T12:30:34;7.10;;;5.10;;
42084;SDS011;27746;52.228;20.890;2023-09-18T12:33:01;7.10;;;5.55;;
42084;SDS011;27746;52.228;20.890;2023-09-18T12:35:29;11.73;;;5.93;;
42084;SDS011;27746;52.228;20.890;2023-09-18T12:37:57;9.20;;;6.10;;
42084;SDS011;27746;52.228;20.890;2023-09-18T12:40:25;6.93;;;5.63;;
42084;SDS011;27746;52.228;20.890;2023-09-18T12:42:53;9.13;;;5.90;;
42084;SDS011;27746;52.228;20.890;2023-09-18T12:45:23;12.20;;;5.88;;
42084;SDS011;27746;52.228;20.890;2023-09-18T12:47:50;9.88;;;5.90;;
42084;SDS011;27746;52.228;20.890;2023-09-18T12:50:18;9.90;;;5.93;;
42084;SDS011;27746;52.228;20.890;2023-09-18T12:52:45;8.63;;;5.15;;
42084;SDS011;27746;52.228;20.890;2023-09-18T12:55:22;8.65;;;5.68;;
42084;SDS011;27746;52.228;20.890;2023-09-18T12:57:50;8.77;;;5.72;;
42084;SDS011;27746;52.228;20.890;2023-09-18T13:00:17;9.23;;;5.90;;
42084;SDS011;27746;52.228;20.890;2023-09-18T13:02:49;7.50;;;5.20;;
42084;SDS011;27746;52.228;20.890;2023-09-18T13:05:20;10.98;;;5.30;;
42084;SDS011;27746;52.228;20.890;2023-09-18T13:07:50;12.65;;;6.65;;
42084;SDS011;27746;52.228;20.890;2023-09-18T13:10:18;9.27;;;6.28;;
42084;SDS011;27746;52.228;20.890;2023-09-18T13:12:47;10.95;;;6.05;;
42084;SDS011;27746;52.228;20.890;2023-09-18T13:15:23;8.38;;;5.82;;
42084;SDS011;27746;52.228;20.890;2023-09-18T13:17:53;10.10;;;5.85;;
42084;SDS011;27746;52.228;20.890;2023-09-18T13:20:21;10.63;;;5.93;;
42084;SDS011;27746;52.228;20.890;2023-09-18T13:22:49;8.05;;;5.70;;
42084;SDS011;27746;52.228;20.890;2023-09-18T13:25:20;11.70;;;5.32;;
42084;SDS011;27746;52.228;20.890;2023-09-18T13:27:48;7.60;;;6.07;;
42084;SDS011;27746;52.228;20.890;2023-09-18T13:30:15;10.05;;;6.47;;
42084;SDS011;27746;52.228;20.890;2023-09-18T13:32:43;9.88;;;6.22;;
42084;SDS011;27746;52.228;20.890;2023-09-18T13:35:12;7.50;;;6.07;;
42084;SDS011;27746;52.228;20.890;2023-09-18T13:37:39;8.02;;;6.35;;
42084;SDS011;27746;52.228;20.890;2023-09-18T13:40:07;8.75;;;6.65;;
42084;SDS011;27746;52.228;20.890;2023-09-18T13:42:34;10.45;;;6.40;;
42084;SDS011;27746;52.228;20.890;2023-09-18T13:45:02;11.70;;;6.90;;
42084;SDS011;27746;52.228;20.890;2023-09-18T13:47:30;9.98;;;6.40;;
42084;SDS011;27746;52.228;20.890;2023-09-18T13:49:57;12.13;;;6.30;;
42084;SDS011;27746;52.228;20.890;2023-09-18T13:52:26;8.82;;;7.15;;
42084;SDS011;27746;52.228;20.890;2023-09-18T13:54:53;9.80;;;6.32;;
42084;SDS011;27746;52.228;20.890;2023-09-18T13:57:21;7.85;;;5.50;;
42084;SDS011;27746;52.228;20.890;2023-09-18T13:59:49;12.73;;;6.95;;
42084;SDS011;27746;52.228;20.890;2023-09-18T14:02:16;11.05;;;6.80;;
42084;SDS011;27746;52.228;20.890;2023-09-18T14:04:44;8.40;;;5.72;;
42084;SDS011;27746;52.228;20.890;2023-09-18T14:07:11;11.43;;;6.32;;
42084;SDS011;27746;52.228;20.890;2023-09-18T14:09:42;10.35;;;6.72;;
42084;SDS011;27746;52.228;20.890;2023-09-18T14:12:11;8.75;;;6.40;;
42084;SDS011;27746;52.228;20.890;2023-09-18T14:14:40;16.13;;;6.78;;
42084;SDS011;27746;52.228;20.890;2023-09-18T14:17:07;6.82;;;5.65;;
42084;SDS011;27746;52.228;20.890;2023-09-18T14:19:34;14.07;;;6.65;;
42084;SDS011;27746;52.228;20.890;2023-09-18T14:22:03;9.63;;;6.65;;
42084;SDS011;27746;52.228;20.890;2023-09-18T14:24:30;12.63;;;6.97;;
42084;SDS011;27746;52.228;20.890;2023-09-18T14:27:00;11.15;;;7.00;;
42084;SDS011;27746;52.228;20.890;2023-09-18T14:29:27;13.73;;;7.07;;
42084;SDS011;27746;52.228;20.890;2023-09-18T14:31:56;8.63;;;7.05;;